Time;durP1;ratioP1;P1;durP2;ratioP2;P2;SDS_P1;SDS_P2;PMS_P1;PMS_P2;Temp;Humidity;BMP_temperature;BMP_pressure;BME280_temperature;BME280_humidity;BME280_pressure;Samples;Min_cycle;Max_cycle;Signal;HPM_P1;HPM_P2
2023/08/12 00:01:25;;;;;;;7.45;5.40;;;19.70;99.90;;;;;;6299089;28;20510;-81
2023/08/12 00:04:27;;;;;;;10.88;5.88;;;19.60;99.90;;;;;;6314667;28;20567;-82
2023/08/12 00:07:28;;;;;;;8.73;5.63;;;19.70;99.90;;;;;;6299529;28;20471;-81
2023/08/12 00:10:30;;;;;;;7.40;6.15;;;19.70;99.90;;;;;;6299627;28;20115;-81
2023/08/12 00:13:33;;;;;;;7.35;6.40;;;19.70;99.90;;;;;;6299147;28;20045;-81
2023/08/12 00:16:35;;;;;;;6.97;6.25;;;19.70;99.90;;;;;;6299626;28;20044;-81
2023/08/12 00:19:37;;;;;;;5.93;5.43;;;19.80;99.90;;;;;;6299040;28;20076;-82
2023/08/12 00:22:38;;;;;;;8.57;6.30;;;19.90;99.90;;;;;;6299797;28;20051;-82
2023/08/12 00:25:40;;;;;;;7.72;6.45;;;19.90;99.90;;;;;;6299978;28;20124;-81
2023/08/12 00:28:43;;;;;;;8.25;5.97;;;19.90;99.90;;;;;;6302533;28;20526;-81
2023/08/12 00:31:45;;;;;;;8.13;5.28;;;20.00;99.90;;;;;;6303057;28;20051;-82
2023/08/12 00:34:47;;;;;;;7.03;6.32;;;20.00;99.90;;;;;;6305138;28;20076;-82
2023/08/12 00:37:48;;;;;;;5.90;5.38;;;20.00;99.90;;;;;;6304068;28;20050;-82
2023/08/12 00:40:50;;;;;;;6.43;5.78;;;20.10;99.90;;;;;;6304373;28;20048;-81
2023/08/12 00:43:54;;;;;;;7.03;6.00;;;20.10;99.90;;;;;;6323960;28;20474;-82
2023/08/12 00:46:56;;;;;;;7.05;5.40;;;20.10;99.90;;;;;;6346479;28;20052;-81
2023/08/12 00:49:59;;;;;;;7.45;5.93;;;20.10;99.90;;;;;;6341479;27;20047;-81
2023/08/12 00:53:00;;;;;;;6.38;5.60;;;20.10;99.90;;;;;;6328513;28;20494;-82
2023/08/12 00:56:03;;;;;;;11.57;5.72;;;20.10;99.90;;;;;;6328701;28;20044;-82
2023/08/12 00:59:08;;;;;;;6.72;6.13;;;20.10;99.90;;;;;;6328827;28;20056;-82
2023/08/12 01:02:11;;;;;;;6.32;5.75;;;20.00;99.90;;;;;;6328345;28;20040;-81
2023/08/12 01:05:13;;;;;;;9.57;6.25;;;20.10;99.90;;;;;;6328003;28;20055;-82
2023/08/12 01:08:15;;;;;;;9.02;5.55;;;20.10;99.90;;;;;;6327701;28;20058;-81
2023/08/12 01:11:25;;;;;;;9.80;6.30;;;20.10;99.90;;;;;;6329039;28;20058;-82
2023/08/12 01:14:36;;;;;;;8.07;6.65;;;20.10;99.90;;;;;;6328149;28;20055;-82
2023/08/12 01:17:42;;;;;;;10.95;6.93;;;20.10;99.90;;;;;;6329384;28;20043;-81
2023/08/12 01:20:44;;;;;;;7.50;6.22;;;20.00;99.90;;;;;;6329222;28;20134;-83
2023/08/12 01:23:47;;;;;;;15.60;7.43;;;20.10;99.90;;;;;;6329890;28;20045;-83
2023/08/12 01:26:49;;;;;;;7.10;6.13;;;20.10;99.90;;;;;;6328530;28;20128;-82
2023/08/12 01:29:52;;;;;;;6.43;5.82;;;20.10;99.90;;;;;;6328241;28;20048;-82
2023/08/12 01:33:04;;;;;;;8.38;6.90;;;20.10;99.90;;;;;;6328362;28;20055;-82
2023/08/12 01:36:11;;;;;;;11.68;5.43;;;20.10;99.90;;;;;;6313563;28;20044;-83
2023/08/12 01:39:16;;;;;;;12.65;6.88;;;20.10;99.90;;;;;;6305150;28;20056;-82
2023/08/12 01:42:19;;;;;;;11.30;7.20;;;20.10;99.90;;;;;;6306110;28;20056;-82
2023/08/12 01:45:21;;;;;;;9.30;5.32;;;20.10;99.90;;;;;;6305789;28;20048;-82
2023/08/12 01:48:23;;;;;;;9.55;5.93;;;20.10;99.90;;;;;;6318645;28;20044;-82
2023/08/12 01:51:25;;;;;;;6.57;5.72;;;20.20;99.90;;;;;;6304763;28;20052;-82
2023/08/12 01:54:33;;;;;;;7.65;5.13;;;20.30;99.90;;;;;;6302614;28;20517;-82
2023/08/12 01:57:34;;;;;;;5.97;5.40;;;20.30;99.90;;;;;;6303743;28;20179;-80
2023/08/12 02:00:36;;;;;;;6.32;5.72;;;20.30;99.90;;;;;;6318903;28;20040;-82
2023/08/12 02:03:38;;;;;;;6.65;5.38;;;20.30;99.90;;;;;;6307573;28;20104;-82
2023/08/12 02:06:40;;;;;;;8.43;5.38;;;20.30;99.90;;;;;;6302872;28;20045;-81
2023/08/12 02:09:43;;;;;;;7.63;5.57;;;20.30;99.90;;;;;;6302547;28;20036;-81
2023/08/12 02:12:45;;;;;;;7.18;4.78;;;20.30;99.90;;;;;;6300828;28;20047;-82
2023/08/12 02:15:46;;;;;;;5.95;5.40;;;20.20;99.90;;;;;;6302121;28;20049;-82
2023/08/12 02:18:48;;;;;;;7.07;5.80;;;20.30;99.90;;;;;;6303323;28;20048;-81
2023/08/12 02:21:50;;;;;;;5.53;4.85;;;20.40;99.90;;;;;;6303081;28;20530;-80
2023/08/12 02:24:53;;;;;;;5.85;5.28;;;20.40;99.90;;;;;;6303172;28;20060;-81
2023/08/12 02:27:54;;;;;;;7.18;5.75;;;20.50;99.90;;;;;;6302698;28;20055;-81
2023/08/12 02:30:56;;;;;;;6.13;5.35;;;20.60;99.90;;;;;;6301389;28;20056;-82
2023/08/12 02:33:58;;;;;;;7.13;5.78;;;20.60;99.90;;;;;;6299913;28;20368;-82
2023/08/12 02:36:59;;;;;;;7.28;5.50;;;20.70;99.90;;;;;;6301416;28;20059;-81
2023/08/12 02:40:04;;;;;;;7.15;6.00;;;20.70;99.90;;;;;;6300993;28;20040;-80
2023/08/12 02:43:06;;;;;;;6.38;5.78;;;20.80;99.90;;;;;;6301593;28;20051;-82
2023/08/12 02:46:07;;;;;;;6.75;5.95;;;20.90;99.90;;;;;;6302768;28;20047;-81
2023/08/12 02:49:09;;;;;;;5.47;4.97;;;20.90;99.90;;;;;;6314403;28;20044;-81
2023/08/12 02:52:11;;;;;;;6.70;5.43;;;21.00;99.90;;;;;;6326211;28;20040;-82
2023/08/12 02:55:14;;;;;;;6.18;5.40;;;21.00;99.90;;;;;;6326732;28;20050;-80
2023/08/12 02:58:15;;;;;;;6.80;5.97;;;21.10;99.90;;;;;;6325925;28;20534;-80
2023/08/12 03:01:17;;;;;;;6.13;5.53;;;21.10;99.90;;;;;;6325449;28;20055;-81
2023/08/12 03:04:19;;;;;;;5.93;4.60;;;21.20;99.90;;;;;;6326897;28;20051;-81
2023/08/12 03:07:21;;;;;;;5.75;5.25;;;21.30;99.90;;;;;;6326420;28;20101;-81
2023/08/12 03:10:24;;;;;;;6.30;5.70;;;21.30;99.90;;;;;;6325160;28;20048;-81
2023/08/12 03:13:26;;;;;;;6.85;5.93;;;21.30;99.90;;;;;;6326339;28;20113;-82
2023/08/12 03:16:27;;;;;;;6.65;5.70;;;21.40;99.90;;;;;;6327071;28;20044;-82
2023/08/12 03:19:29;;;;;;;11.85;7.47;;;21.40;99.90;;;;;;6327990;28;20052;-81
2023/08/12 03:22:31;;;;;;;7.70;5.47;;;21.40;99.90;;;;;;6326915;28;20506;-83
2023/08/12 03:25:34;;;;;;;10.82;6.68;;;21.30;99.90;;;;;;6326065;28;20522;-81
2023/08/12 03:28:36;;;;;;;7.13;5.43;;;21.30;99.90;;;;;;6326182;28;20044;-82
2023/08/12 03:31:37;;;;;;;6.57;5.63;;;21.30;99.90;;;;;;6325998;28;20059;-81
2023/08/12 03:34:39;;;;;;;10.38;6.25;;;21.30;99.90;;;;;;6321311;28;20047;-81
2023/08/12 03:37:41;;;;;;;6.22;5.63;;;21.30;99.90;;;;;;6325224;28;20457;-81
2023/08/12 03:40:44;;;;;;;6.32;5.40;;;21.30;99.90;;;;;;6335262;28;20044;-83
2023/08/12 03:43:46;;;;;;;5.18;4.72;;;21.30;99.90;;;;;;6334712;28;20055;-82
2023/08/12 03:46:47;;;;;;;5.90;5.30;;;21.30;99.90;;;;;;6335089;28;20063;-82
2023/08/12 03:49:49;;;;;;;6.78;5.40;;;21.30;99.90;;;;;;6333047;28;20048;-82
2023/08/12 03:52:51;;;;;;;6.32;5.75;;;21.30;99.90;;;;;;6334580;28;20418;-82
2023/08/12 03:55:54;;;;;;;6.47;5.88;;;21.30;99.90;;;;;;6331645;28;20509;-82
2023/08/12 03:58:55;;;;;;;6.47;5.07;;;21.30;99.90;;;;;;6332794;28;20066;-81
2023/08/12 04:01:57;;;;;;;6.13;5.43;;;21.30;99.90;;;;;;6334605;28;20063;-82
2023/08/12 04:04:59;;;;;;;15.15;6.07;;;21.30;99.90;;;;;;6338783;28;20097;-81
2023/08/12 04:08:01;;;;;;;7.25;5.22;;;21.40;99.90;;;;;;6338784;28;20050;-80
2023/08/12 04:11:04;;;;;;;5.07;4.55;;;21.40;99.90;;;;;;6315045;28;20044;-81
2023/08/12 04:14:05;;;;;;;6.13;4.93;;;21.40;99.90;;;;;;6313919;28;20052;-82
2023/08/12 04:17:07;;;;;;;4.90;4.50;;;21.40;99.90;;;;;;6314424;28;20044;-82
2023/08/12 04:20:09;;;;;;;7.85;4.40;;;21.40;99.90;;;;;;6314645;28;20040;-82
2023/08/12 04:23:11;;;;;;;5.38;4.93;;;21.40;99.90;;;;;;6315044;28;20055;-82
2023/08/12 04:26:14;;;;;;;6.80;5.93;;;21.40;99.90;;;;;;6313806;28;20048;-82
2023/08/12 04:29:16;;;;;;;5.47;4.95;;;21.40;99.90;;;;;;6313761;28;20053;-80
2023/08/12 04:32:17;;;;;;;7.88;6.88;;;21.40;99.90;;;;;;6313460;28;20048;-81
2023/08/12 04:35:19;;;;;;;7.18;6.28;;;21.40;99.90;;;;;;6315944;28;20053;-82
2023/08/12 04:38:21;;;;;;;8.98;5.20;;;21.40;99.90;;;;;;6313995;28;20050;-82
2023/08/12 04:41:24;;;;;;;5.90;5.35;;;21.40;99.90;;;;;;6314661;28;20052;-81
2023/08/12 04:44:26;;;;;;;6.78;5.90;;;21.40;99.90;;;;;;6325319;28;20048;-81
2023/08/12 04:47:27;;;;;;;7.72;5.88;;;21.40;99.90;;;;;;6338602;28;20052;-81
2023/08/12 04:50:30;;;;;;;6.68;5.47;;;21.40;99.90;;;;;;6337026;28;20044;-80
2023/08/12 04:53:32;;;;;;;7.03;5.78;;;21.50;99.90;;;;;;6338396;28;20055;-81
2023/08/12 04:56:35;;;;;;;6.72;5.55;;;21.50;99.90;;;;;;6333804;28;20044;-82
2023/08/12 04:59:37;;;;;;;5.38;4.88;;;21.50;99.90;;;;;;6334872;28;20058;-80
2023/08/12 05:02:39;;;;;;;4.70;4.30;;;21.50;99.90;;;;;;6333384;28;20051;-82
2023/08/12 05:05:40;;;;;;;5.32;4.82;;;21.60;99.90;;;;;;6333957;28;20054;-82
2023/08/12 05:08:42;;;;;;;8.85;6.03;;;21.60;99.90;;;;;;6333495;28;20054;-82
2023/08/12 05:11:45;;;;;;;10.90;4.65;;;21.60;99.90;;;;;;6334758;28;20059;-82
2023/08/12 05:14:47;;;;;;;8.80;5.20;;;21.60;99.90;;;;;;6333840;28;20067;-81
2023/08/12 05:17:48;;;;;;;7.05;6.30;;;21.70;99.90;;;;;;6332596;28;20055;-82
2023/08/12 05:20:52;;;;;;;5.57;5.07;;;21.70;99.90;;;;;;6333511;28;20052;-81
2023/08/12 05:23:54;;;;;;;5.97;5.38;;;21.80;99.90;;;;;;6331049;28;20044;-81
2023/08/12 05:26:57;;;;;;;6.55;5.28;;;21.80;99.90;;;;;;6335257;28;20048;-81
2023/08/12 05:29:59;;;;;;;6.82;4.65;;;21.90;99.90;;;;;;6335511;28;20048;-81
2023/08/12 05:33:00;;;;;;;8.07;5.25;;;22.00;99.90;;;;;;6333945;28;20068;-81
2023/08/12 05:36:03;;;;;;;6.60;5.85;;;22.00;99.90;;;;;;6336218;28;20462;-80
2023/08/12 05:39:05;;;;;;;5.57;4.40;;;22.00;99.90;;;;;;6335420;28;20062;-80
2023/08/12 05:42:08;;;;;;;11.27;5.43;;;22.10;99.90;;;;;;6336087;28;20546;-81
2023/08/12 05:45:11;;;;;;;12.45;5.25;;;22.00;99.90;;;;;;6336824;28;20040;-82
2023/08/12 05:48:12;;;;;;;7.28;5.82;;;22.10;99.90;;;;;;6335291;28;20654;-82
2023/08/12 05:51:14;;;;;;;9.18;5.20;;;22.10;99.90;;;;;;6333748;28;20059;-82
2023/08/12 05:54:16;;;;;;;8.75;5.55;;;22.10;99.90;;;;;;6333515;28;20044;-81
2023/08/12 05:57:19;;;;;;;5.57;4.97;;;22.10;99.90;;;;;;6333177;28;20040;-80
2023/08/12 06:00:21;;;;;;;5.00;4.50;;;22.20;99.90;;;;;;6334498;28;20040;-80
2023/08/12 06:03:22;;;;;;;8.48;5.00;;;22.40;99.90;;;;;;6334436;28;20058;-81
2023/08/12 06:06:24;;;;;;;7.63;5.10;;;22.60;99.90;;;;;;6333268;28;20059;-81
2023/08/12 06:09:26;;;;;;;6.25;5.60;;;22.90;99.90;;;;;;6333820;28;20059;-80
2023/08/12 06:12:29;;;;;;;5.13;4.70;;;23.10;99.90;;;;;;6332920;28;20574;-83
2023/08/12 06:15:31;;;;;;;6.18;5.07;;;23.30;99.90;;;;;;6325031;28;20114;-82
2023/08/12 06:18:34;;;;;;;5.85;4.60;;;23.70;99.90;;;;;;6327291;28;20048;-83
2023/08/12 06:21:35;;;;;;;5.40;3.70;;;24.20;99.90;;;;;;6328105;28;20052;-80
2023/08/12 06:24:37;;;;;;;5.75;4.72;;;24.90;99.90;;;;;;6328004;28;20044;-82
2023/08/12 06:27:40;;;;;;;6.07;4.63;;;25.10;99.90;;;;;;6327143;28;20051;-82
2023/08/12 06:30:45;;;;;;;6.07;4.35;;;25.40;99.90;;;;;;6328917;28;20055;-80
2023/08/12 06:33:47;;;;;;;9.52;4.70;;;25.70;99.90;;;;;;6327025;28;20036;-81
2023/08/12 06:36:49;;;;;;;5.60;5.03;;;26.30;99.90;;;;;;6298889;28;20058;-82
2023/08/12 06:39:50;;;;;;;7.53;4.45;;;26.40;99.90;;;;;;6303365;28;20055;-80
2023/08/12 06:42:54;;;;;;;5.78;5.22;;;26.30;99.90;;;;;;6327709;28;20062;-81
2023/08/12 06:45:55;;;;;;;6.70;4.82;;;26.00;99.90;;;;;;6314917;28;20499;-83
2023/08/12 06:48:57;;;;;;;6.35;5.50;;;25.80;99.90;;;;;;6321965;28;20043;-83
2023/08/12 06:51:59;;;;;;;5.20;4.72;;;25.70;99.90;;;;;;6327142;28;20040;-83
2023/08/12 06:55:00;;;;;;;6.57;4.65;;;25.60;99.90;;;;;;6328797;28;20506;-82
2023/08/12 06:58:04;;;;;;;9.90;4.43;;;25.40;99.90;;;;;;6303362;28;20047;-82
2023/08/12 07:01:05;;;;;;;5.30;4.80;;;25.40;99.90;;;;;;6302528;28;20040;-82
2023/08/12 07:04:07;;;;;;;5.15;4.38;;;25.70;99.90;;;;;;6312205;28;20058;-80
2023/08/12 07:07:09;;;;;;;8.15;5.43;;;26.50;99.90;;;;;;6325504;28;20048;-80
2023/08/12 07:10:11;;;;;;;6.93;4.75;;;27.30;99.90;;;;;;6316809;28;20044;-82
2023/08/12 07:13:14;;;;;;;4.82;4.32;;;27.50;99.90;;;;;;6326032;28;20411;-79
2023/08/12 07:16:16;;;;;;;6.78;4.50;;;27.40;99.70;;;;;;6326394;28;20048;-82
2023/08/12 07:19:18;;;;;;;8.57;5.10;;;27.10;99.80;;;;;;6327494;28;20047;-80
2023/08/12 07:22:20;;;;;;;8.38;5.03;;;27.10;99.90;;;;;;6326205;28;20063;-80
2023/08/12 07:25:22;;;;;;;9.68;4.95;;;27.90;99.80;;;;;;6325983;28;20044;-82
2023/08/12 07:28:25;;;;;;;5.20;4.30;;;28.30;98.50;;;;;;6325586;28;20068;-81
2023/08/12 07:31:26;;;;;;;7.97;5.18;;;28.30;97.70;;;;;;6325688;28;20058;-83
2023/08/12 07:34:28;;;;;;;8.68;4.05;;;28.00;97.70;;;;;;6323515;28;20047;-83
2023/08/12 07:37:30;;;;;;;5.57;4.25;;;27.80;97.70;;;;;;6323603;28;20051;-81
2023/08/12 07:40:31;;;;;;;10.02;5.07;;;28.10;98.30;;;;;;6325529;28;20040;-83
2023/08/12 07:43:34;;;;;;;6.72;4.07;;;29.00;97.40;;;;;;6330575;28;20048;-81
2023/08/12 07:46:36;;;;;;;9.18;4.93;;;29.90;95.90;;;;;;6329299;28;20052;-79
2023/08/12 07:49:38;;;;;;;7.88;4.38;;;30.70;94.70;;;;;;6322843;28;20047;-83
2023/08/12 07:52:40;;;;;;;6.82;4.63;;;31.30;93.00;;;;;;6329868;28;20040;-83
2023/08/12 07:55:42;;;;;;;8.10;3.95;;;31.80;91.80;;;;;;6332095;28;20050;-83
2023/08/12 07:58:45;;;;;;;6.97;4.30;;;32.30;90.10;;;;;;6321560;28;20067;-81
2023/08/12 08:01:47;;;;;;;3.70;3.33;;;32.10;88.30;;;;;;6328165;28;20059;-80
2023/08/12 08:04:49;;;;;;;4.78;4.28;;;32.10;87.90;;;;;;6327635;28;20056;-83
2023/08/12 08:07:50;;;;;;;5.35;4.47;;;32.60;86.20;;;;;;6324205;28;20052;-80
2023/08/12 08:10:52;;;;;;;4.57;4.18;;;32.80;84.50;;;;;;6318384;28;20048;-81
2023/08/12 08:13:55;;;;;;;7.82;4.15;;;33.10;82.60;;;;;;6316539;28;20051;-81
2023/08/12 08:16:57;;;;;;;5.95;4.47;;;33.50;81.00;;;;;;6328163;28;20051;-83
2023/08/12 08:19:59;;;;;;;3.88;3.58;;;33.90;79.50;;;;;;6327296;28;20529;-82
2023/08/12 08:23:01;;;;;;;4.78;3.75;;;34.30;78.10;;;;;;6328246;28;20695;-82
2023/08/12 08:26:02;;;;;;;6.47;4.10;;;34.80;76.30;;;;;;6328259;28;20423;-83
2023/08/12 08:29:05;;;;;;;6.10;4.00;;;35.10;74.40;;;;;;6329208;28;20048;-82
2023/08/12 08:32:07;;;;;;;3.97;3.60;;;35.30;73.00;;;;;;6330212;28;20047;-83
2023/08/12 08:35:09;;;;;;;4.70;3.50;;;35.40;71.40;;;;;;6327370;28;20055;-81
2023/08/12 08:38:11;;;;;;;9.50;4.10;;;35.60;70.90;;;;;;6326451;28;20048;-81
2023/08/12 08:41:13;;;;;;;6.28;3.70;;;35.70;69.70;;;;;;6313656;28;20145;-84
2023/08/12 08:44:18;;;;;;;7.25;3.67;;;35.60;68.70;;;;;;6309898;28;20390;-82
2023/08/12 08:47:23;;;;;;;4.30;3.95;;;35.70;68.10;;;;;;6331024;28;20185;-82
2023/08/12 08:50:25;;;;;;;3.75;3.30;;;36.00;67.10;;;;;;6330895;28;20044;-83
2023/08/12 08:53:26;;;;;;;5.57;3.92;;;36.30;66.30;;;;;;6332348;28;20163;-83
2023/08/12 08:56:29;;;;;;;5.63;3.10;;;36.20;65.50;;;;;;6327214;28;20036;-82
2023/08/12 08:59:32;;;;;;;5.60;3.65;;;36.30;64.60;;;;;;6325393;28;20048;-81
2023/08/12 09:02:34;;;;;;;10.05;4.40;;;36.50;63.70;;;;;;6325101;28;20055;-82
2023/08/12 09:05:38;;;;;;;9.10;3.42;;;36.60;62.80;;;;;;6326115;28;20052;-83
2023/08/12 09:08:45;;;;;;;4.85;3.55;;;36.70;62.70;;;;;;6322094;28;20166;-83
2023/08/12 09:11:48;;;;;;;3.83;3.53;;;36.80;62.00;;;;;;6314608;28;20150;-80
2023/08/12 09:14:51;;;;;;;6.38;3.55;;;36.80;60.80;;;;;;6310757;28;20055;-82
2023/08/12 09:17:52;;;;;;;6.00;3.90;;;36.50;60.70;;;;;;6308123;28;20049;-83
2023/08/12 09:20:54;;;;;;;4.00;3.65;;;36.20;60.80;;;;;;6306987;28;20051;-82
2023/08/12 09:23:56;;;;;;;4.75;3.47;;;35.60;61.20;;;;;;6305154;28;20072;-83
2023/08/12 09:26:58;;;;;;;4.85;3.30;;;35.00;62.00;;;;;;6305320;28;20056;-82
2023/08/12 09:30:04;;;;;;;12.07;4.82;;;34.20;63.30;;;;;;6303821;28;20058;-82
2023/08/12 09:33:08;;;;;;;5.53;3.88;;;33.60;65.00;;;;;;6307615;28;20055;-81
2023/08/12 09:36:09;;;;;;;5.03;4.25;;;33.30;66.30;;;;;;6301426;28;20045;-82
2023/08/12 09:39:13;;;;;;;9.60;4.15;;;33.00;67.30;;;;;;6314146;28;20044;-81
2023/08/12 09:42:16;;;;;;;4.25;3.85;;;32.70;68.40;;;;;;6301879;28;20414;-84
2023/08/12 09:45:20;;;;;;;5.90;4.15;;;32.40;69.30;;;;;;6301250;28;20049;-82
2023/08/12 09:48:22;;;;;;;5.65;3.72;;;32.40;70.00;;;;;;6301393;28;20055;-82
2023/08/12 09:51:23;;;;;;;5.93;4.65;;;32.80;69.90;;;;;;6301316;28;20052;-83
2023/08/12 09:54:27;;;;;;;5.13;3.38;;;33.50;69.30;;;;;;6301543;28;20040;-83
2023/08/12 09:57:30;;;;;;;7.93;3.70;;;34.30;67.80;;;;;;6300134;28;20044;-81
2023/08/12 10:00:34;;;;;;;6.57;4.43;;;34.10;67.50;;;;;;6301084;28;20048;-84
2023/08/12 10:03:36;;;;;;;5.40;3.83;;;34.50;67.00;;;;;;6300799;28;20490;-83
2023/08/12 10:06:38;;;;;;;5.85;4.07;;;35.10;66.00;;;;;;6301240;28;20074;-84
2023/08/12 10:09:41;;;;;;;5.53;3.92;;;35.50;64.80;;;;;;6304029;28;20169;-83
2023/08/12 10:12:43;;;;;;;3.75;3.45;;;35.80;63.80;;;;;;6327662;28;20043;-81
2023/08/12 10:15:46;;;;;;;4.45;4.05;;;35.90;63.30;;;;;;6324683;28;20063;-81
2023/08/12 10:18:50;;;;;;;4.82;3.20;;;35.90;63.20;;;;;;6327957;28;20048;-82
2023/08/12 10:21:56;;;;;;;3.83;3.30;;;35.90;62.70;;;;;;6325743;28;20055;-83
2023/08/12 10:24:59;;;;;;;4.73;3.73;;;35.80;62.00;;;;;;6325525;28;20063;-82
2023/08/12 10:28:01;;;;;;;5.90;3.97;;;35.30;62.10;;;;;;6326982;28;20722;-83
2023/08/12 10:31:04;;;;;;;4.10;3.50;;;35.10;62.50;;;;;;6327528;28;20517;-82
2023/08/12 10:34:06;;;;;;;7.40;3.40;;;34.80;62.00;;;;;;6325671;28;20044;-81
2023/08/12 10:37:11;;;;;;;4.35;3.08;;;34.10;63.80;;;;;;6324895;28;20052;-82
2023/08/12 10:40:21;;;;;;;9.10;3.45;;;34.10;64.10;;;;;;6307006;28;20090;-82
2023/08/12 10:43:29;;;;;;;5.22;3.33;;;33.90;64.10;;;;;;6299485;28;20349;-83
2023/08/12 10:46:34;;;;;;;4.50;4.10;;;33.30;64.70;;;;;;6301321;28;20052;-82
2023/08/12 10:49:39;;;;;;;8.38;3.58;;;32.70;66.10;;;;;;6302601;28;20044;-82
2023/08/12 10:52:45;;;;;;;6.88;3.78;;;32.30;67.00;;;;;;6302534;28;20131;-80
2023/08/12 10:55:50;;;;;;;9.30;4.35;;;31.60;68.10;;;;;;6323432;28;20039;-81
2023/08/12 10:58:52;;;;;;;9.82;4.25;;;30.90;70.50;;;;;;6315503;28;20056;-82
2023/08/12 11:02:07;;;;;;;15.60;5.90;;;30.40;71.90;;;;;;6328674;28;20108;-82
2023/08/12 11:05:10;;;;;;;7.72;5.00;;;29.80;73.80;;;;;;6303913;28;20048;-83
2023/08/12 11:08:14;;;;;;;7.72;4.35;;;29.00;76.50;;;;;;6313158;28;20482;-84
2023/08/12 11:11:21;;;;;;;6.93;5.70;;;28.20;80.20;;;;;;6300566;28;20048;-82
2023/08/12 11:14:25;;;;;;;6.57;5.50;;;27.80;83.80;;;;;;6299798;28;20040;-82
2023/08/12 11:17:32;;;;;;;6.32;5.10;;;27.30;86.60;;;;;;6306204;28;20047;-81
2023/08/12 11:20:35;;;;;;;13.40;5.38;;;27.00;89.80;;;;;;6325890;28;20051;-81
2023/08/12 11:23:37;;;;;;;6.60;5.57;;;26.90;91.30;;;;;;6323280;28;20051;-82
2023/08/12 11:26:40;;;;;;;6.70;4.90;;;27.00;92.60;;;;;;6325291;28;20052;-82
2023/08/12 11:29:41;;;;;;;4.60;4.20;;;27.50;94.60;;;;;;6321291;28;20067;-83
2023/08/12 11:32:46;;;;;;;4.97;4.55;;;28.30;95.60;;;;;;6301144;28;20408;-83
2023/08/12 11:35:48;;;;;;;5.43;4.10;;;28.80;95.00;;;;;;6300845;28;20059;-84
2023/08/12 11:38:49;;;;;;;8.00;5.65;;;29.10;94.30;;;;;;6307790;28;20049;-84
2023/08/12 11:41:52;;;;;;;9.30;4.53;;;29.40;94.10;;;;;;6300313;28;20076;-82
2023/08/12 11:44:53;;;;;;;5.45;4.95;;;29.70;94.20;;;;;;6301043;28;20051;-82
2023/08/12 11:47:57;;;;;;;6.22;4.85;;;30.00;94.30;;;;;;6299319;28;20052;-82
2023/08/12 11:50:59;;;;;;;6.80;5.22;;;30.60;93.80;;;;;;6301029;28;20067;-82
2023/08/12 11:54:01;;;;;;;5.70;4.97;;;31.20;93.30;;;;;;6304234;28;20515;-81
2023/08/12 11:57:03;;;;;;;7.78;4.43;;;31.80;92.50;;;;;;6327604;28;19920;-81
2023/08/12 12:00:13;;;;;;;5.20;4.70;;;32.30;91.00;;;;;;6326531;28;20048;-83
2023/08/12 12:03:17;;;;;;;5.15;4.00;;;32.60;89.90;;;;;;6330382;28;20039;-82
2023/08/12 12:06:29;;;;;;;7.95;4.60;;;33.00;87.70;;;;;;6335014;28;20052;-81
2023/08/12 12:09:31;;;;;;;4.57;4.18;;;33.20;85.50;;;;;;6322569;28;20047;-82
2023/08/12 12:12:34;;;;;;;5.75;5.15;;;33.60;84.40;;;;;;6317181;28;20066;-81
2023/08/12 12:15:39;;;;;;;6.57;4.80;;;33.90;82.90;;;;;;6309587;28;20086;-83
2023/08/12 12:18:42;;;;;;;8.18;4.70;;;34.10;82.10;;;;;;6309467;28;20416;-82
2023/08/12 12:21:47;;;;;;;4.32;3.90;;;34.50;80.50;;;;;;6307969;28;20059;-82
2023/08/12 12:24:48;;;;;;;4.25;3.38;;;34.80;78.90;;;;;;6311332;28;20036;-80
2023/08/12 12:27:50;;;;;;;4.80;4.28;;;34.90;76.90;;;;;;6311701;28;20084;-83
2023/08/12 12:30:52;;;;;;;4.55;4.00;;;34.80;76.90;;;;;;6313624;28;20418;-81
2023/08/12 12:33:55;;;;;;;6.40;4.20;;;34.30;76.60;;;;;;6316567;28;20048;-83
2023/08/12 12:36:56;;;;;;;5.18;4.22;;;34.00;76.90;;;;;;6312922;28;20051;-81
2023/08/12 12:39:58;;;;;;;4.55;3.13;;;33.80;77.60;;;;;;6325797;28;20039;-80
2023/08/12 12:43:00;;;;;;;6.10;3.92;;;33.90;77.80;;;;;;6335135;28;20055;-82
2023/08/12 12:46:01;;;;;;;5.18;3.53;;;34.30;76.50;;;;;;6330161;28;20114;-83
2023/08/12 12:49:05;;;;;;;4.70;3.72;;;34.50;73.80;;;;;;6332340;28;20051;-81
2023/08/12 12:52:06;;;;;;;5.80;3.35;;;34.40;72.30;;;;;;6316409;28;20054;-82
2023/08/12 12:55:09;;;;;;;5.00;3.17;;;34.50;72.20;;;;;;6313914;28;20051;-83
2023/08/12 12:58:11;;;;;;;4.30;3.35;;;34.60;70.10;;;;;;6324283;28;20055;-82
2023/08/12 13:01:13;;;;;;;4.05;2.92;;;34.70;69.90;;;;;;6333660;28;20044;-84
2023/08/12 13:04:16;;;;;;;4.53;2.42;;;34.60;69.40;;;;;;6335196;28;20046;-83
2023/08/12 13:07:17;;;;;;;3.60;2.70;;;34.30;69.30;;;;;;6336820;28;20051;-84
2023/08/12 13:10:19;;;;;;;3.15;2.85;;;34.30;69.30;;;;;;6335797;28;20071;-83
2023/08/12 13:13:21;;;;;;;4.10;3.05;;;34.30;69.00;;;;;;6309381;28;20044;-83
2023/08/12 13:16:23;;;;;;;4.25;3.47;;;33.80;68.30;;;;;;6309060;28;20406;-83
2023/08/12 13:19:26;;;;;;;4.80;3.83;;;32.80;69.40;;;;;;6306569;28;20506;-82
2023/08/12 13:22:27;;;;;;;13.43;4.90;;;32.10;71.20;;;;;;6308289;28;20048;-83
2023/08/12 13:25:30;;;;;;;5.95;3.20;;;32.30;72.00;;;;;;6308780;28;20418;-82
2023/08/12 13:28:32;;;;;;;4.68;2.78;;;32.70;72.10;;;;;;6310002;28;20063;-82
2023/08/12 13:31:34;;;;;;;4.68;2.72;;;33.00;71.60;;;;;;6305653;28;20158;-83
2023/08/12 13:34:37;;;;;;;3.30;2.95;;;33.40;71.30;;;;;;6301261;28;20051;-83
2023/08/12 13:37:38;;;;;;;7.00;2.70;;;33.70;70.70;;;;;;6303730;28;20053;-82
2023/08/12 13:40:40;;;;;;;4.18;3.78;;;34.00;70.40;;;;;;6305272;28;20044;-82
2023/08/12 13:43:42;;;;;;;4.50;2.78;;;34.20;69.80;;;;;;6300806;28;20048;-84
2023/08/12 13:46:43;;;;;;;3.40;3.10;;;34.30;69.10;;;;;;6312220;28;20040;-84
2023/08/12 13:49:46;;;;;;;5.45;3.35;;;34.30;69.10;;;;;;6326311;28;20070;-82
2023/08/12 13:52:49;;;;;;;4.60;3.63;;;34.50;69.30;;;;;;6327095;28;20040;-82
2023/08/12 13:55:50;;;;;;;3.60;3.10;;;34.80;68.90;;;;;;6332260;28;20060;-83
2023/08/12 13:58:52;;;;;;;7.60;3.22;;;34.80;68.60;;;;;;6326703;28;20056;-83
2023/08/12 14:01:54;;;;;;;3.58;3.20;;;34.80;68.30;;;;;;6326478;28;20051;-83
2023/08/12 14:04:57;;;;;;;5.18;3.95;;;34.70;68.40;;;;;;6325517;28;20063;-83
2023/08/12 14:07:59;;;;;;;4.28;3.72;;;34.60;68.30;;;;;;6330721;28;20032;-82
2023/08/12 14:11:01;;;;;;;5.47;3.75;;;34.30;68.70;;;;;;6324022;28;20058;-82
2023/08/12 14:14:03;;;;;;;5.18;3.95;;;33.70;69.20;;;;;;6332083;28;20043;-80
2023/08/12 14:17:05;;;;;;;4.95;3.40;;;33.20;70.30;;;;;;6329089;28;20059;-82
2023/08/12 14:20:09;;;;;;;6.18;4.60;;;32.60;71.60;;;;;;6332092;28;20047;-83
2023/08/12 14:23:11;;;;;;;5.05;4.30;;;32.00;73.20;;;;;;6324695;28;20048;-83
2023/08/12 14:26:12;;;;;;;5.93;4.63;;;31.70;74.50;;;;;;6325677;28;20047;-82
2023/08/12 14:29:14;;;;;;;6.25;4.20;;;31.30;75.50;;;;;;6329248;28;20058;-82
2023/08/12 14:32:18;;;;;;;5.50;4.95;;;30.90;77.10;;;;;;6330516;28;20422;-82
2023/08/12 14:35:21;;;;;;;8.60;4.32;;;30.60;79.50;;;;;;6332678;28;20131;-83
2023/08/12 14:38:23;;;;;;;7.72;5.90;;;30.20;81.60;;;;;;6331546;28;20044;-83
2023/08/12 14:41:24;;;;;;;8.05;4.57;;;29.70;82.80;;;;;;6305007;28;20047;-82
2023/08/12 14:44:26;;;;;;;13.05;6.13;;;29.40;84.00;;;;;;6307635;28;20044;-84
2023/08/12 14:47:28;;;;;;;8.90;6.63;;;28.90;86.30;;;;;;6312845;28;20036;-83
2023/08/12 14:50:31;;;;;;;20.42;7.90;;;28.10;89.40;;;;;;6327063;28;20055;-81
2023/08/12 14:53:32;;;;;;;19.98;6.68;;;27.10;91.30;;;;;;6337242;28;20051;-80
2023/08/12 14:56:34;;;;;;;17.60;7.10;;;26.10;92.80;;;;;;6328842;28;20035;-79
2023/08/12 14:59:36;;;;;;;11.57;6.85;;;25.20;94.70;;;;;;6305145;28;20049;-81
2023/08/12 15:02:37;;;;;;;14.52;7.93;;;24.40;98.30;;;;;;6307972;28;20048;-81
2023/08/12 15:05:40;;;;;;;16.48;9.90;;;23.80;99.90;;;;;;6301002;28;20045;-82
2023/08/12 15:08:43;;;;;;;12.77;8.35;;;23.40;99.90;;;;;;6302739;28;20040;-81
2023/08/12 15:11:44;;;;;;;18.15;9.88;;;23.20;99.90;;;;;;6320181;28;20055;-80
2023/08/12 15:14:46;;;;;;;12.48;9.15;;;23.10;99.90;;;;;;6324736;28;20058;-81
2023/08/12 15:17:48;;;;;;;17.45;9.77;;;23.00;99.90;;;;;;6324219;28;20051;-81
2023/08/12 15:20:51;;;;;;;14.02;11.25;;;23.00;99.90;;;;;;6324055;28;20064;-82
2023/08/12 15:23:52;;;;;;;20.75;10.35;;;23.00;99.90;;;;;;6324021;28;20044;-81
2023/08/12 15:26:54;;;;;;;11.55;8.82;;;22.70;99.90;;;;;;6324446;28;20074;-79
2023/08/12 15:29:56;;;;;;;20.02;10.45;;;22.50;99.90;;;;;;6323618;28;20044;-81
2023/08/12 15:32:57;;;;;;;11.45;9.25;;;22.20;99.90;;;;;;6324339;28;20040;-80
2023/08/12 15:36:00;;;;;;;12.05;9.98;;;22.10;99.90;;;;;;6325691;28;20044;-81
2023/08/12 15:39:03;;;;;;;15.18;11.55;;;22.00;99.90;;;;;;6317726;28;20048;-81
2023/08/12 15:42:05;;;;;;;13.73;10.50;;;22.10;99.90;;;;;;6301700;28;20081;-80
2023/08/12 15:45:08;;;;;;;16.08;10.77;;;22.20;99.90;;;;;;6299418;28;20045;-80
2023/08/12 15:48:10;;;;;;;12.73;11.43;;;22.30;99.90;;;;;;6299694;28;20051;-81